sensor_id;sensor_type;location;lat;lon;timestamp;P1;durP1;ratioP1;P2;durP2;ratioP2
60935;SDS011;46804;51.786;19.520;2023-02-28T00:02:03;7.60;;;4.60;;
60935;SDS011;46804;51.786;19.520;2023-02-28T00:06:04;11.82;;;5.10;;
60935;SDS011;46804;51.786;19.520;2023-02-28T00:10:06;5.22;;;3.50;;
60935;SDS011;46804;51.786;19.520;2023-02-28T00:18:09;6.50;;;3.80;;
60935;SDS011;46804;51.786;19.520;2023-02-28T00:22:10;9.45;;;4.35;;
60935;SDS011;46804;51.786;19.520;2023-02-28T00:26:11;8.50;;;5.03;;
60935;SDS011;46804;51.786;19.520;2023-02-28T00:30:13;14.55;;;7.68;;
60935;SDS011;46804;51.786;19.520;2023-02-28T00:34:18;13.05;;;6.60;;
60935;SDS011;46804;51.786;19.520;2023-02-28T00:38:19;14.60;;;7.70;;
60935;SDS011;46804;51.786;19.520;2023-02-28T00:42:19;12.07;;;6.22;;
60935;SDS011;46804;51.786;19.520;2023-02-28T00:46:20;9.25;;;5.07;;
60935;SDS011;46804;51.786;19.520;2023-02-28T00:50:21;16.67;;;5.85;;
60935;SDS011;46804;51.786;19.520;2023-02-28T00:54:22;6.20;;;3.88;;
60935;SDS011;46804;51.786;19.520;2023-02-28T00:58:23;10.07;;;4.82;;
60935;SDS011;46804;51.786;19.520;2023-02-28T01:02:24;19.30;;;6.68;;
60935;SDS011;46804;51.786;19.520;2023-02-28T01:06:25;24.58;;;11.68;;
60935;SDS011;46804;51.786;19.520;2023-02-28T01:10:26;21.45;;;10.25;;
60935;SDS011;46804;51.786;19.520;2023-02-28T01:14:31;23.98;;;11.38;;
60935;SDS011;46804;51.786;19.520;2023-02-28T01:18:32;11.50;;;7.40;;
60935;SDS011;46804;51.786;19.520;2023-02-28T01:22:34;13.90;;;6.43;;
60935;SDS011;46804;51.786;19.520;2023-02-28T01:26:35;14.45;;;6.60;;
60935;SDS011;46804;51.786;19.520;2023-02-28T01:30:36;11.95;;;5.70;;
60935;SDS011;46804;51.786;19.520;2023-02-28T01:34:36;9.50;;;5.18;;
60935;SDS011;46804;51.786;19.520;2023-02-28T01:38:37;11.32;;;4.50;;
60935;SDS011;46804;51.786;19.520;2023-02-28T01:42:39;9.50;;;5.05;;
60935;SDS011;46804;51.786;19.520;2023-02-28T01:46:39;7.43;;;3.67;;
60935;SDS011;46804;51.786;19.520;2023-02-28T01:50:41;8.30;;;4.07;;
60935;SDS011;46804;51.786;19.520;2023-02-28T01:54:46;9.98;;;4.35;;
60935;SDS011;46804;51.786;19.520;2023-02-28T01:58:51;8.63;;;4.47;;
60935;SDS011;46804;51.786;19.520;2023-02-28T02:02:54;11.07;;;5.13;;
60935;SDS011;46804;51.786;19.520;2023-02-28T02:07:06;5.20;;;4.03;;
60935;SDS011;46804;51.786;19.520;2023-02-28T02:11:07;9.68;;;4.30;;
60935;SDS011;46804;51.786;19.520;2023-02-28T02:19:31;10.68;;;5.05;;
60935;SDS011;46804;51.786;19.520;2023-02-28T02:37:19;22.05;;;10.02;;
60935;SDS011;46804;51.786;19.520;2023-02-28T02:45:54;19.15;;;7.28;;
60935;SDS011;46804;51.786;19.520;2023-02-28T02:49:57;12.93;;;7.47;;
60935;SDS011;46804;51.786;19.520;2023-02-28T02:54:11;11.15;;;5.70;;
60935;SDS011;46804;51.786;19.520;2023-02-28T02:58:17;15.20;;;6.88;;
60935;SDS011;46804;51.786;19.520;2023-02-28T03:02:20;11.07;;;5.57;;
60935;SDS011;46804;51.786;19.520;2023-02-28T03:06:22;8.02;;;4.60;;
60935;SDS011;46804;51.786;19.520;2023-02-28T03:10:27;6.63;;;4.53;;
60935;SDS011;46804;51.786;19.520;2023-02-28T03:19:06;7.13;;;4.60;;
60935;SDS011;46804;51.786;19.520;2023-02-28T03:23:34;5.50;;;3.92;;
60935;SDS011;46804;51.786;19.520;2023-02-28T03:32:47;11.90;;;4.95;;
60935;SDS011;46804;51.786;19.520;2023-02-28T03:36:44;9.40;;;4.40;;
60935;SDS011;46804;51.786;19.520;2023-02-28T03:40:54;5.90;;;3.28;;
60935;SDS011;46804;51.786;19.520;2023-02-28T03:45:00;11.15;;;4.78;;
60935;SDS011;46804;51.786;19.520;2023-02-28T03:49:16;7.82;;;3.95;;
60935;SDS011;46804;51.786;19.520;2023-02-28T03:53:31;5.30;;;3.72;;
60935;SDS011;46804;51.786;19.520;2023-02-28T04:01:57;6.25;;;2.97;;
60935;SDS011;46804;51.786;19.520;2023-02-28T04:05:58;9.00;;;4.75;;
60935;SDS011;46804;51.786;19.520;2023-02-28T04:09:59;8.02;;;4.07;;
60935;SDS011;46804;51.786;19.520;2023-02-28T04:14:00;13.65;;;5.88;;
60935;SDS011;46804;51.786;19.520;2023-02-28T04:18:02;16.15;;;5.57;;
60935;SDS011;46804;51.786;19.520;2023-02-28T04:22:03;25.42;;;11.52;;
60935;SDS011;46804;51.786;19.520;2023-02-28T04:26:03;64.40;;;21.67;;
60935;SDS011;46804;51.786;19.520;2023-02-28T04:30:06;49.75;;;23.77;;
60935;SDS011;46804;51.786;19.520;2023-02-28T04:34:07;47.97;;;21.30;;
60935;SDS011;46804;51.786;19.520;2023-02-28T04:38:07;29.08;;;14.57;;
60935;SDS011;46804;51.786;19.520;2023-02-28T04:42:08;16.55;;;9.20;;
60935;SDS011;46804;51.786;19.520;2023-02-28T04:46:09;27.77;;;9.95;;
60935;SDS011;46804;51.786;19.520;2023-02-28T04:50:10;15.43;;;9.35;;
60935;SDS011;46804;51.786;19.520;2023-02-28T04:54:11;18.17;;;10.45;;
60935;SDS011;46804;51.786;19.520;2023-02-28T04:58:13;21.17;;;8.60;;
60935;SDS011;46804;51.786;19.520;2023-02-28T05:02:14;16.27;;;7.82;;
60935;SDS011;46804;51.786;19.520;2023-02-28T05:06:15;11.75;;;6.53;;
60935;SDS011;46804;51.786;19.520;2023-02-28T05:10:16;15.00;;;6.32;;
60935;SDS011;46804;51.786;19.520;2023-02-28T05:14:17;15.05;;;6.43;;
60935;SDS011;46804;51.786;19.520;2023-02-28T05:18:17;14.18;;;6.93;;
60935;SDS011;46804;51.786;19.520;2023-02-28T05:22:18;23.42;;;8.38;;
60935;SDS011;46804;51.786;19.520;2023-02-28T05:26:19;17.80;;;8.57;;
60935;SDS011;46804;51.786;19.520;2023-02-28T05:30:20;21.27;;;9.60;;
60935;SDS011;46804;51.786;19.520;2023-02-28T05:34:20;12.68;;;7.90;;
60935;SDS011;46804;51.786;19.520;2023-02-28T05:38:21;10.57;;;6.25;;
60935;SDS011;46804;51.786;19.520;2023-02-28T05:42:22;11.63;;;6.03;;
60935;SDS011;46804;51.786;19.520;2023-02-28T05:46:23;16.67;;;7.10;;
60935;SDS011;46804;51.786;19.520;2023-02-28T05:50:24;17.23;;;7.72;;
60935;SDS011;46804;51.786;19.520;2023-02-28T05:54:24;11.57;;;6.90;;
60935;SDS011;46804;51.786;19.520;2023-02-28T05:58:25;15.50;;;8.68;;
60935;SDS011;46804;51.786;19.520;2023-02-28T06:02:29;10.88;;;5.18;;
60935;SDS011;46804;51.786;19.520;2023-02-28T06:06:30;16.95;;;7.03;;
60935;SDS011;46804;51.786;19.520;2023-02-28T06:10:30;11.15;;;6.22;;
60935;SDS011;46804;51.786;19.520;2023-02-28T06:14:32;9.38;;;5.93;;
60935;SDS011;46804;51.786;19.520;2023-02-28T06:18:33;20.45;;;8.15;;
60935;SDS011;46804;51.786;19.520;2023-02-28T06:22:37;11.57;;;6.10;;
60935;SDS011;46804;51.786;19.520;2023-02-28T06:26:37;13.05;;;8.13;;
60935;SDS011;46804;51.786;19.520;2023-02-28T06:30:38;16.83;;;7.70;;
60935;SDS011;46804;51.786;19.520;2023-02-28T06:34:39;8.88;;;5.72;;
60935;SDS011;46804;51.786;19.520;2023-02-28T06:38:40;13.43;;;6.55;;
60935;SDS011;46804;51.786;19.520;2023-02-28T06:42:41;10.75;;;6.10;;
60935;SDS011;46804;51.786;19.520;2023-02-28T06:46:43;12.77;;;6.57;;
60935;SDS011;46804;51.786;19.520;2023-02-28T06:50:44;17.80;;;6.38;;
60935;SDS011;46804;51.786;19.520;2023-02-28T06:54:45;8.40;;;4.95;;
60935;SDS011;46804;51.786;19.520;2023-02-28T06:58:49;23.48;;;9.20;;
60935;SDS011;46804;51.786;19.520;2023-02-28T07:02:50;19.00;;;6.32;;
60935;SDS011;46804;51.786;19.520;2023-02-28T07:06:51;15.13;;;6.28;;
60935;SDS011;46804;51.786;19.520;2023-02-28T07:10:53;9.07;;;6.03;;
60935;SDS011;46804;51.786;19.520;2023-02-28T07:14:54;18.67;;;5.90;;
60935;SDS011;46804;51.786;19.520;2023-02-28T07:18:56;9.95;;;5.82;;
60935;SDS011;46804;51.786;19.520;2023-02-28T07:22:56;14.68;;;6.35;;
60935;SDS011;46804;51.786;19.520;2023-02-28T07:26:57;13.02;;;5.82;;
60935;SDS011;46804;51.786;19.520;2023-02-28T07:31:03;11.07;;;6.07;;
60935;SDS011;46804;51.786;19.520;2023-02-28T07:35:05;9.00;;;5.85;;
60935;SDS011;46804;51.786;19.520;2023-02-28T07:39:06;9.20;;;5.57;;
60935;SDS011;46804;51.786;19.520;2023-02-28T07:43:09;8.70;;;5.22;;
60935;SDS011;46804;51.786;19.520;2023-02-28T07:47:10;12.57;;;5.30;;
60935;SDS011;46804;51.786;19.520;2023-02-28T07:51:11;9.88;;;5.45;;
60935;SDS011;46804;51.786;19.520;2023-02-28T07:55:12;11.23;;;5.53;;
60935;SDS011;46804;51.786;19.520;2023-02-28T07:59:14;8.90;;;5.25;;
60935;SDS011;46804;51.786;19.520;2023-02-28T08:03:15;12.95;;;5.82;;
60935;SDS011;46804;51.786;19.520;2023-02-28T08:07:18;11.80;;;4.93;;
60935;SDS011;46804;51.786;19.520;2023-02-28T08:11:19;9.32;;;5.18;;
60935;SDS011;46804;51.786;19.520;2023-02-28T08:15:19;10.02;;;6.13;;
60935;SDS011;46804;51.786;19.520;2023-02-28T08:19:20;8.10;;;5.57;;
60935;SDS011;46804;51.786;19.520;2023-02-28T08:23:21;13.20;;;5.90;;
60935;SDS011;46804;51.786;19.520;2023-02-28T08:27:21;13.27;;;6.60;;
60935;SDS011;46804;51.786;19.520;2023-02-28T08:31:22;12.60;;;5.35;;
60935;SDS011;46804;51.786;19.520;2023-02-28T08:35:23;10.68;;;6.03;;
60935;SDS011;46804;51.786;19.520;2023-02-28T08:39:24;10.88;;;4.75;;
60935;SDS011;46804;51.786;19.520;2023-02-28T08:43:24;14.85;;;6.57;;
60935;SDS011;46804;51.786;19.520;2023-02-28T08:47:25;14.95;;;5.95;;
60935;SDS011;46804;51.786;19.520;2023-02-28T08:51:26;15.00;;;6.30;;
60935;SDS011;46804;51.786;19.520;2023-02-28T08:55:27;13.55;;;6.10;;
60935;SDS011;46804;51.786;19.520;2023-02-28T08:59:28;11.88;;;5.72;;
60935;SDS011;46804;51.786;19.520;2023-02-28T09:03:29;10.35;;;5.03;;
60935;SDS011;46804;51.786;19.520;2023-02-28T09:07:29;7.30;;;4.05;;
60935;SDS011;46804;51.786;19.520;2023-02-28T09:11:30;9.77;;;5.28;;
60935;SDS011;46804;51.786;19.520;2023-02-28T09:15:31;11.30;;;5.22;;
60935;SDS011;46804;51.786;19.520;2023-02-28T09:19:31;8.90;;;4.70;;
60935;SDS011;46804;51.786;19.520;2023-02-28T09:23:32;9.18;;;4.97;;
60935;SDS011;46804;51.786;19.520;2023-02-28T09:27:33;16.17;;;8.38;;
60935;SDS011;46804;51.786;19.520;2023-02-28T09:31:34;13.02;;;5.68;;
60935;SDS011;46804;51.786;19.520;2023-02-28T09:35:34;18.77;;;6.72;;
60935;SDS011;46804;51.786;19.520;2023-02-28T09:39:37;8.07;;;4.88;;
60935;SDS011;46804;51.786;19.520;2023-02-28T09:43:38;6.70;;;4.10;;
60935;SDS011;46804;51.786;19.520;2023-02-28T09:47:43;10.93;;;5.07;;
60935;SDS011;46804;51.786;19.520;2023-02-28T09:55:57;15.07;;;5.80;;
60935;SDS011;46804;51.786;19.520;2023-02-28T10:08:38;9.23;;;4.88;;
60935;SDS011;46804;51.786;19.520;2023-02-28T10:12:45;9.68;;;5.22;;
60935;SDS011;46804;51.786;19.520;2023-02-28T10:16:50;8.18;;;4.65;;
60935;SDS011;46804;51.786;19.520;2023-02-28T10:20:55;10.40;;;5.40;;
60935;SDS011;46804;51.786;19.520;2023-02-28T10:24:57;10.40;;;5.10;;
60935;SDS011;46804;51.786;19.520;2023-02-28T10:29:00;8.63;;;4.72;;
60935;SDS011;46804;51.786;19.520;2023-02-28T10:33:01;8.75;;;5.07;;
60935;SDS011;46804;51.786;19.520;2023-02-28T10:37:02;9.80;;;5.35;;
60935;SDS011;46804;51.786;19.520;2023-02-28T10:41:08;8.13;;;4.90;;
60935;SDS011;46804;51.786;19.520;2023-02-28T10:45:14;8.93;;;5.23;;
60935;SDS011;46804;51.786;19.520;2023-02-28T10:49:20;8.50;;;5.50;;
60935;SDS011;46804;51.786;19.520;2023-02-28T11:01:35;9.43;;;5.22;;
60935;SDS011;46804;51.786;19.520;2023-02-28T11:05:44;12.25;;;6.28;;
60935;SDS011;46804;51.786;19.520;2023-02-28T11:09:48;9.30;;;5.45;;
60935;SDS011;46804;51.786;19.520;2023-02-28T11:13:51;9.63;;;5.53;;
60935;SDS011;46804;51.786;19.520;2023-02-28T11:22:15;11.90;;;5.70;;
60935;SDS011;46804;51.786;19.520;2023-02-28T11:26:35;8.55;;;4.93;;
60935;SDS011;46804;51.786;19.520;2023-02-28T11:30:46;9.13;;;5.63;;
60935;SDS011;46804;51.786;19.520;2023-02-28T11:35:03;9.80;;;5.45;;
60935;SDS011;46804;51.786;19.520;2023-02-28T11:39:10;9.95;;;5.40;;
60935;SDS011;46804;51.786;19.520;2023-02-28T11:47:55;12.25;;;6.32;;
60935;SDS011;46804;51.786;19.520;2023-02-28T11:52:01;9.60;;;6.05;;
60935;SDS011;46804;51.786;19.520;2023-02-28T11:56:06;10.30;;;5.45;;
60935;SDS011;46804;51.786;19.520;2023-02-28T12:13:32;9.27;;;5.75;;
60935;SDS011;46804;51.786;19.520;2023-02-28T12:26:38;10.32;;;6.25;;
60935;SDS011;46804;51.786;19.520;2023-02-28T12:30:44;10.45;;;6.40;;
60935;SDS011;46804;51.786;19.520;2023-02-28T12:34:57;13.38;;;7.50;;
60935;SDS011;46804;51.786;19.520;2023-02-28T12:39:13;11.50;;;5.78;;
60935;SDS011;46804;51.786;19.520;2023-02-28T12:43:19;17.80;;;7.32;;
60935;SDS011;46804;51.786;19.520;2023-02-28T12:47:22;10.50;;;6.13;;
60935;SDS011;46804;51.786;19.520;2023-02-28T12:51:22;14.00;;;7.55;;
60935;SDS011;46804;51.786;19.520;2023-02-28T13:00:03;13.35;;;7.15;;
60935;SDS011;46804;51.786;19.520;2023-02-28T13:13:01;29.88;;;10.45;;
60935;SDS011;46804;51.786;19.520;2023-02-28T13:29:35;15.55;;;7.40;;
60935;SDS011;46804;51.786;19.520;2023-02-28T13:37:50;21.85;;;9.57;;
60935;SDS011;46804;51.786;19.520;2023-02-28T13:41:52;10.57;;;6.30;;
60935;SDS011;46804;51.786;19.520;2023-02-28T13:46:03;11.88;;;6.63;;
60935;SDS011;46804;51.786;19.520;2023-02-28T13:59:20;13.13;;;6.85;;
60935;SDS011;46804;51.786;19.520;2023-02-28T14:03:46;14.43;;;6.63;;
60935;SDS011;46804;51.786;19.520;2023-02-28T14:08:28;12.18;;;6.22;;
60935;SDS011;46804;51.786;19.520;2023-02-28T14:17:00;11.10;;;6.18;;
60935;SDS011;46804;51.786;19.520;2023-02-28T14:21:11;13.60;;;6.53;;
60935;SDS011;46804;51.786;19.520;2023-02-28T14:25:33;13.55;;;6.75;;
60935;SDS011;46804;51.786;19.520;2023-02-28T14:38:46;14.20;;;7.65;;
60935;SDS011;46804;51.786;19.520;2023-02-28T14:42:55;12.93;;;6.70;;
60935;SDS011;46804;51.786;19.520;2023-02-28T14:46:58;20.95;;;10.23;;
60935;SDS011;46804;51.786;19.520;2023-02-28T14:51:06;12.30;;;9.20;;
60935;SDS011;46804;51.786;19.520;2023-02-28T14:55:10;34.13;;;17.63;;
60935;SDS011;46804;51.786;19.520;2023-02-28T14:59:23;13.88;;;9.48;;
60935;SDS011;46804;51.786;19.520;2023-02-28T15:11:31;15.25;;;7.40;;
60935;SDS011;46804;51.786;19.520;2023-02-28T15:19:44;14.82;;;7.13;;
60935;SDS011;46804;51.786;19.520;2023-02-28T15:23:50;14.63;;;7.00;;
60935;SDS011;46804;51.786;19.520;2023-02-28T15:27:56;12.48;;;6.88;;
60935;SDS011;46804;51.786;19.520;2023-02-28T15:32:04;13.57;;;7.35;;
60935;SDS011;46804;51.786;19.520;2023-02-28T15:36:14;29.02;;;17.13;;
60935;SDS011;46804;51.786;19.520;2023-02-28T15:40:28;11.50;;;6.78;;
60935;SDS011;46804;51.786;19.520;2023-02-28T15:44:33;15.43;;;6.70;;
60935;SDS011;46804;51.786;19.520;2023-02-28T15:48:43;17.25;;;7.13;;
60935;SDS011;46804;51.786;19.520;2023-02-28T15:52:53;13.95;;;8.00;;
60935;SDS011;46804;51.786;19.520;2023-02-28T15:56:55;14.13;;;7.70;;
60935;SDS011;46804;51.786;19.520;2023-02-28T16:01:05;21.90;;;10.43;;
60935;SDS011;46804;51.786;19.520;2023-02-28T16:05:20;22.20;;;10.35;;
60935;SDS011;46804;51.786;19.520;2023-02-28T16:09:31;20.73;;;10.65;;
60935;SDS011;46804;51.786;19.520;2023-02-28T16:13:32;24.00;;;11.68;;
60935;SDS011;46804;51.786;19.520;2023-02-28T16:17:34;31.95;;;13.85;;
60935;SDS011;46804;51.786;19.520;2023-02-28T16:21:37;39.25;;;14.85;;
60935;SDS011;46804;51.786;19.520;2023-02-28T16:25:40;34.55;;;15.40;;
60935;SDS011;46804;51.786;19.520;2023-02-28T16:29:42;40.03;;;17.33;;
60935;SDS011;46804;51.786;19.520;2023-02-28T16:33:43;34.63;;;15.63;;
60935;SDS011;46804;51.786;19.520;2023-02-28T16:37:45;37.40;;;16.98;;
60935;SDS011;46804;51.786;19.520;2023-02-28T16:41:46;46.58;;;18.55;;
60935;SDS011;46804;51.786;19.520;2023-02-28T16:45:48;43.88;;;19.23;;
60935;SDS011;46804;51.786;19.520;2023-02-28T16:49:55;39.65;;;15.98;;
60935;SDS011;46804;51.786;19.520;2023-02-28T16:53:56;41.38;;;17.35;;
60935;SDS011;46804;51.786;19.520;2023-02-28T16:57:57;33.08;;;14.68;;
60935;SDS011;46804;51.786;19.520;2023-02-28T17:01:59;29.77;;;13.88;;
60935;SDS011;46804;51.786;19.520;2023-02-28T17:06:00;26.42;;;13.65;;
60935;SDS011;46804;51.786;19.520;2023-02-28T17:10:01;33.85;;;11.93;;
60935;SDS011;46804;51.786;19.520;2023-02-28T17:14:08;30.02;;;13.27;;
60935;SDS011;46804;51.786;19.520;2023-02-28T17:18:11;28.15;;;13.93;;
60935;SDS011;46804;51.786;19.520;2023-02-28T17:22:16;28.13;;;13.68;;
60935;SDS011;46804;51.786;19.520;2023-02-28T17:26:17;29.88;;;13.32;;
60935;SDS011;46804;51.786;19.520;2023-02-28T17:30:26;27.13;;;13.20;;
60935;SDS011;46804;51.786;19.520;2023-02-28T17:34:30;27.67;;;12.38;;
60935;SDS011;46804;51.786;19.520;2023-02-28T17:38:31;26.08;;;13.13;;
60935;SDS011;46804;51.786;19.520;2023-02-28T17:42:32;28.88;;;13.48;;
60935;SDS011;46804;51.786;19.520;2023-02-28T17:46:32;34.72;;;13.35;;
60935;SDS011;46804;51.786;19.520;2023-02-28T17:50:33;28.33;;;13.18;;
60935;SDS011;46804;51.786;19.520;2023-02-28T17:54:34;35.22;;;15.35;;
60935;SDS011;46804;51.786;19.520;2023-02-28T17:58:35;40.40;;;19.00;;
60935;SDS011;46804;51.786;19.520;2023-02-28T18:02:35;29.23;;;14.57;;
60935;SDS011;46804;51.786;19.520;2023-02-28T18:06:37;43.55;;;18.38;;
60935;SDS011;46804;51.786;19.520;2023-02-28T18:10:46;46.05;;;21.38;;
60935;SDS011;46804;51.786;19.520;2023-02-28T18:14:46;44.53;;;18.97;;
60935;SDS011;46804;51.786;19.520;2023-02-28T18:18:48;43.45;;;21.40;;
60935;SDS011;46804;51.786;19.520;2023-02-28T18:22:49;52.47;;;20.65;;
60935;SDS011;46804;51.786;19.520;2023-02-28T18:26:50;39.08;;;15.05;;
60935;SDS011;46804;51.786;19.520;2023-02-28T18:30:51;39.33;;;18.63;;
60935;SDS011;46804;51.786;19.520;2023-02-28T18:34:52;33.00;;;18.98;;
60935;SDS011;46804;51.786;19.520;2023-02-28T18:38:53;41.10;;;20.52;;
60935;SDS011;46804;51.786;19.520;2023-02-28T18:42:54;37.92;;;20.33;;
60935;SDS011;46804;51.786;19.520;2023-02-28T18:46:54;36.00;;;18.67;;
60935;SDS011;46804;51.786;19.520;2023-02-28T18:50:55;30.20;;;15.38;;
60935;SDS011;46804;51.786;19.520;2023-02-28T18:54:56;32.60;;;17.17;;
60935;SDS011;46804;51.786;19.520;2023-02-28T18:58:57;35.90;;;17.52;;
60935;SDS011;46804;51.786;19.520;2023-02-28T19:02:58;43.20;;;20.80;;
60935;SDS011;46804;51.786;19.520;2023-02-28T19:06:59;53.28;;;24.67;;
60935;SDS011;46804;51.786;19.520;2023-02-28T19:11:05;55.90;;;25.17;;
60935;SDS011;46804;51.786;19.520;2023-02-28T19:15:07;40.65;;;21.38;;
60935;SDS011;46804;51.786;19.520;2023-02-28T19:19:09;37.83;;;16.30;;
60935;SDS011;46804;51.786;19.520;2023-02-28T19:23:09;35.17;;;16.85;;
60935;SDS011;46804;51.786;19.520;2023-02-28T19:27:12;42.53;;;16.60;;
60935;SDS011;46804;51.786;19.520;2023-02-28T19:31:13;36.40;;;17.02;;
60935;SDS011;46804;51.786;19.520;2023-02-28T19:35:15;33.50;;;16.25;;
60935;SDS011;46804;51.786;19.520;2023-02-28T19:39:16;33.17;;;14.77;;
60935;SDS011;46804;51.786;19.520;2023-02-28T19:43:18;37.90;;;13.13;;
60935;SDS011;46804;51.786;19.520;2023-02-28T19:47:19;33.60;;;15.18;;
60935;SDS011;46804;51.786;19.520;2023-02-28T19:51:19;25.65;;;13.23;;
60935;SDS011;46804;51.786;19.520;2023-02-28T19:55:20;23.58;;;12.07;;
60935;SDS011;46804;51.786;19.520;2023-02-28T19:59:24;32.63;;;15.50;;
60935;SDS011;46804;51.786;19.520;2023-02-28T20:03:25;29.27;;;14.63;;
60935;SDS011;46804;51.786;19.520;2023-02-28T20:07:26;32.42;;;15.25;;
60935;SDS011;46804;51.786;19.520;2023-02-28T20:11:27;36.30;;;15.18;;
60935;SDS011;46804;51.786;19.520;2023-02-28T20:15:29;24.02;;;11.60;;
60935;SDS011;46804;51.786;19.520;2023-02-28T20:19:31;31.60;;;12.07;;
60935;SDS011;46804;51.786;19.520;2023-02-28T20:23:32;21.83;;;9.18;;
60935;SDS011;46804;51.786;19.520;2023-02-28T20:27:33;19.80;;;10.52;;
60935;SDS011;46804;51.786;19.520;2023-02-28T20:31:34;18.80;;;10.38;;
60935;SDS011;46804;51.786;19.520;2023-02-28T20:35:39;27.98;;;13.30;;
60935;SDS011;46804;51.786;19.520;2023-02-28T20:39:39;28.52;;;14.35;;
60935;SDS011;46804;51.786;19.520;2023-02-28T20:43:41;25.40;;;12.55;;
60935;SDS011;46804;51.786;19.520;2023-02-28T20:47:42;25.42;;;13.20;;
60935;SDS011;46804;51.786;19.520;2023-02-28T20:51:43;28.85;;;14.25;;
60935;SDS011;46804;51.786;19.520;2023-02-28T20:55:57;36.88;;;16.25;;
60935;SDS011;46804;51.786;19.520;2023-02-28T20:59:59;37.45;;;14.60;;
60935;SDS011;46804;51.786;19.520;2023-02-28T21:04:01;31.35;;;16.23;;
60935;SDS011;46804;51.786;19.520;2023-02-28T21:08:05;41.88;;;17.60;;
60935;SDS011;46804;51.786;19.520;2023-02-28T21:12:06;29.27;;;15.27;;
60935;SDS011;46804;51.786;19.520;2023-02-28T21:16:07;40.53;;;16.83;;
60935;SDS011;46804;51.786;19.520;2023-02-28T21:20:12;40.72;;;17.40;;
60935;SDS011;46804;51.786;19.520;2023-02-28T21:24:21;24.52;;;12.13;;
60935;SDS011;46804;51.786;19.520;2023-02-28T21:28:22;23.77;;;11.63;;
60935;SDS011;46804;51.786;19.520;2023-02-28T21:32:23;28.48;;;11.73;;
60935;SDS011;46804;51.786;19.520;2023-02-28T21:36:24;24.15;;;11.30;;
60935;SDS011;46804;51.786;19.520;2023-02-28T21:40:28;17.40;;;9.65;;
60935;SDS011;46804;51.786;19.520;2023-02-28T21:44:29;19.27;;;10.02;;
60935;SDS011;46804;51.786;19.520;2023-02-28T21:48:31;26.10;;;13.48;;
60935;SDS011;46804;51.786;19.520;2023-02-28T21:52:32;45.97;;;18.35;;
60935;SDS011;46804;51.786;19.520;2023-02-28T21:56:33;43.53;;;22.48;;
60935;SDS011;46804;51.786;19.520;2023-02-28T22:00:34;61.47;;;29.35;;
60935;SDS011;46804;51.786;19.520;2023-02-28T22:04:35;38.65;;;17.13;;
60935;SDS011;46804;51.786;19.520;2023-02-28T22:08:37;25.38;;;11.40;;
60935;SDS011;46804;51.786;19.520;2023-02-28T22:12:39;21.98;;;11.00;;
60935;SDS011;46804;51.786;19.520;2023-02-28T22:16:39;25.97;;;12.03;;
60935;SDS011;46804;51.786;19.520;2023-02-28T22:20:40;25.42;;;12.27;;
60935;SDS011;46804;51.786;19.520;2023-02-28T22:24:41;18.42;;;10.68;;
60935;SDS011;46804;51.786;19.520;2023-02-28T22:28:41;29.30;;;11.82;;
60935;SDS011;46804;51.786;19.520;2023-02-28T22:32:42;19.27;;;11.43;;
60935;SDS011;46804;51.786;19.520;2023-02-28T22:36:43;21.90;;;13.57;;
60935;SDS011;46804;51.786;19.520;2023-02-28T22:40:44;27.95;;;14.85;;
60935;SDS011;46804;51.786;19.520;2023-02-28T22:44:45;31.23;;;13.95;;
60935;SDS011;46804;51.786;19.520;2023-02-28T22:48:46;29.08;;;13.27;;
60935;SDS011;46804;51.786;19.520;2023-02-28T22:52:48;29.05;;;12.55;;
60935;SDS011;46804;51.786;19.520;2023-02-28T22:56:48;22.02;;;13.32;;
60935;SDS011;46804;51.786;19.520;2023-02-28T23:00:49;25.02;;;11.18;;
60935;SDS011;46804;51.786;19.520;2023-02-28T23:04:54;32.28;;;12.23;;
60935;SDS011;46804;51.786;19.520;2023-02-28T23:08:55;15.57;;;8.93;;
60935;SDS011;46804;51.786;19.520;2023-02-28T23:12:57;23.95;;;10.60;;
60935;SDS011;46804;51.786;19.520;2023-02-28T23:16:59;19.23;;;9.48;;
60935;SDS011;46804;51.786;19.520;2023-02-28T23:21:00;19.25;;;6.50;;
60935;SDS011;46804;51.786;19.520;2023-02-28T23:25:01;13.95;;;8.00;;
60935;SDS011;46804;51.786;19.520;2023-02-28T23:29:02;15.75;;;8.55;;
60935;SDS011;46804;51.786;19.520;2023-02-28T23:33:04;16.20;;;8.52;;
60935;SDS011;46804;51.786;19.520;2023-02-28T23:37:05;27.85;;;11.63;;
60935;SDS011;46804;51.786;19.520;2023-02-28T23:41:10;42.38;;;16.95;;
60935;SDS011;46804;51.786;19.520;2023-02-28T23:45:11;31.42;;;13.60;;
60935;SDS011;46804;51.786;19.520;2023-02-28T23:49:12;24.85;;;11.73;;
60935;SDS011;46804;51.786;19.520;2023-02-28T23:53:13;22.65;;;11.40;;
60935;SDS011;46804;51.786;19.520;2023-02-28T23:57:14;20.45;;;10.68;;
